Time;durP1;ratioP1;P1;durP2;ratioP2;P2;SDS_P1;SDS_P2;PMS_P1;PMS_P2;Temp;Humidity;BMP_temperature;BMP_pressure;BME280_temperature;BME280_humidity;BME280_pressure;Samples;Min_cycle;Max_cycle;Signal;HPM_P1;HPM_P2
2022/07/20 00:00:48;;;;;;;7.75;4.75;;;;;;;26.09;34.16;101101.53;5023582;28;20461;-85
2022/07/20 00:03:13;;;;;;;8.38;4.95;;;;;;;26.09;34.63;101112.19;5011584;28;20025;-85
2022/07/20 00:05:43;;;;;;;7.95;4.90;;;;;;;25.91;34.20;101089.88;5010887;28;20461;-86
2022/07/20 00:08:09;;;;;;;8.55;4.80;;;;;;;25.82;34.74;101085.88;5011438;28;20017;-85
2022/07/20 00:13:21;;;;;;;8.20;4.85;;;;;;;25.92;34.69;101118.09;5037124;28;20119;-87
2022/07/20 00:15:47;;;;;;;8.70;4.78;;;;;;;25.82;34.97;101101.03;5027327;28;20080;-87
2022/07/20 00:18:12;;;;;;;10.15;4.47;;;;;;;25.79;34.56;101112.88;5025806;28;20057;-86
2022/07/20 00:20:37;;;;;;;13.02;4.75;;;;;;;25.87;34.76;101115.28;5026990;28;20037;-86
2022/07/20 00:23:04;;;;;;;8.18;4.75;;;;;;;25.71;34.86;101102.50;5038480;28;20464;-87
2022/07/20 00:25:29;;;;;;;8.60;4.80;;;;;;;25.81;34.91;101116.16;5028327;28;20037;-86
2022/07/20 00:27:55;;;;;;;8.43;4.60;;;;;;;25.70;35.11;101114.19;5009367;28;20036;-86
2022/07/20 00:30:20;;;;;;;7.57;5.03;;;;;;;25.68;35.55;101106.41;5016806;28;20057;-86
2022/07/20 00:32:47;;;;;;;7.13;4.78;;;;;;;25.67;35.19;101114.59;4999973;28;20057;-86
2022/07/20 00:35:16;;;;;;;8.85;4.50;;;;;;;25.63;35.48;101103.63;5010768;28;20026;-86
2022/07/20 00:37:42;;;;;;;8.25;4.88;;;;;;;25.60;35.15;101113.84;5021026;28;20060;-86
2022/07/20 00:40:10;;;;;;;9.80;4.97;;;;;;;25.49;35.77;101114.56;5010779;28;20049;-86
2022/07/20 00:42:36;;;;;;;7.35;5.03;;;;;;;25.53;35.63;101102.47;5010358;28;20261;-87
2022/07/20 00:45:04;;;;;;;7.00;5.10;;;;;;;25.55;35.81;101124.31;5017284;28;20026;-86
2022/07/20 00:47:29;;;;;;;8.75;5.10;;;;;;;25.42;35.69;101104.00;5018949;28;20060;-86
2022/07/20 00:49:55;;;;;;;8.70;4.68;;;;;;;25.43;36.23;101108.25;5022059;28;20123;-86
2022/07/20 00:52:23;;;;;;;10.32;5.13;;;;;;;25.33;36.01;101106.06;5010228;28;20079;-86
2022/07/20 00:54:49;;;;;;;8.50;5.28;;;;;;;25.30;36.17;101109.19;5014337;28;20025;-86
2022/07/20 00:57:16;;;;;;;8.77;5.40;;;;;;;25.24;35.82;101099.44;5027023;28;20029;-86
2022/07/20 00:59:41;;;;;;;8.27;4.90;;;;;;;25.23;36.04;101108.41;5025877;28;20037;-88
2022/07/20 01:02:07;;;;;;;9.32;5.25;;;;;;;25.16;36.75;101091.72;5007056;28;20351;-86
2022/07/20 01:04:33;;;;;;;8.10;5.35;;;;;;;25.21;36.41;101105.16;5028349;28;20029;-86
2022/07/20 01:07:01;;;;;;;9.68;5.50;;;;;;;25.15;36.39;101106.00;5033443;28;20025;-86
2022/07/20 01:09:29;;;;;;;10.05;5.47;;;;;;;25.18;36.07;101094.97;5006735;28;20461;-85
2022/07/20 01:11:54;;;;;;;8.30;5.53;;;;;;;25.13;36.74;101108.88;5012934;28;20021;-85
2022/07/20 01:14:20;;;;;;;9.07;5.15;;;;;;;25.18;36.45;101121.53;5007853;28;20465;-85
2022/07/20 01:16:46;;;;;;;11.48;5.57;;;;;;;25.02;36.74;101106.06;5009811;28;20033;-85
2022/07/20 01:19:26;;;;;;;9.35;5.57;;;;;;;24.90;36.97;101167.78;5017939;28;20025;-87
2022/07/20 01:21:52;;;;;;;9.40;6.13;;;;;;;24.75;37.15;101100.91;5015243;28;20069;-86
2022/07/20 01:24:17;;;;;;;8.43;5.40;;;;;;;24.78;37.08;101105.00;5009614;28;20053;-86
2022/07/20 01:26:44;;;;;;;9.77;5.38;;;;;;;24.82;36.68;101106.97;5001541;28;20034;-83
2022/07/20 01:29:11;;;;;;;8.90;5.53;;;;;;;24.90;36.78;101108.59;5002085;28;20026;-83
2022/07/20 01:31:46;;;;;;;7.97;5.43;;;;;;;24.95;37.24;101115.91;5062813;28;20399;-62
2022/07/20 01:34:11;;;;;;;11.77;5.90;;;;;;;24.92;37.23;101117.13;5057903;28;20021;-63
2022/07/20 01:36:37;;;;;;;10.80;6.85;;;;;;;24.78;37.35;101123.56;5048785;28;20032;-65
2022/07/20 01:39:03;;;;;;;8.90;6.18;;;;;;;24.81;37.63;101126.59;5054503;28;20036;-62
2022/07/20 01:41:28;;;;;;;11.63;6.65;;;;;;;24.44;37.99;101130.03;5041985;28;20017;-69
2022/07/20 01:43:53;;;;;;;9.50;6.13;;;;;;;24.52;38.75;101132.44;5039845;28;20731;-61
2022/07/20 01:46:19;;;;;;;9.10;5.63;;;;;;;24.42;38.49;101132.03;5040091;28;20075;-62
2022/07/20 01:48:44;;;;;;;10.50;5.70;;;;;;;24.50;38.83;101139.78;5038903;28;20029;-62
2022/07/20 01:51:09;;;;;;;12.25;6.10;;;;;;;24.46;38.75;101162.44;5047108;28;20483;-61
2022/07/20 01:53:35;;;;;;;12.23;5.80;;;;;;;24.52;38.05;101137.72;5038832;28;20033;-62
2022/07/20 01:56:00;;;;;;;10.30;6.03;;;;;;;24.35;38.49;101146.13;5032998;28;20380;-67
2022/07/20 01:58:26;;;;;;;9.40;5.90;;;;;;;24.35;38.24;101143.50;5038546;28;20433;-65
2022/07/20 02:00:52;;;;;;;11.13;7.00;;;;;;;24.38;38.34;101130.84;5039822;28;20106;-61
2022/07/20 02:03:17;;;;;;;11.55;6.35;;;;;;;24.41;38.39;101133.88;5045382;28;20036;-63
2022/07/20 02:05:43;;;;;;;10.52;6.13;;;;;;;24.45;37.66;101131.66;5036924;28;20116;-61
2022/07/20 02:08:08;;;;;;;10.15;6.40;;;;;;;24.46;38.55;101133.25;5041888;28;20500;-68
2022/07/20 02:10:35;;;;;;;10.05;5.90;;;;;;;24.32;38.32;101132.47;5031270;28;20022;-61
2022/07/20 02:13:00;;;;;;;8.00;5.97;;;;;;;24.32;38.60;101122.69;5032550;28;20348;-61
2022/07/20 02:18:12;;;;;;;10.65;5.97;;;;;;;24.02;40.80;101124.16;5042400;28;20519;-64
2022/07/20 02:20:39;;;;;;;8.13;5.80;;;;;;;23.84;40.99;101115.00;5034834;28;20060;-65
2022/07/20 02:23:06;;;;;;;8.73;6.03;;;;;;;23.83;40.97;101123.16;5037951;28;20033;-61
2022/07/20 02:25:33;;;;;;;9.60;5.80;;;;;;;23.71;41.33;101125.63;5048684;28;20021;-60
2022/07/20 02:27:58;;;;;;;10.00;5.78;;;;;;;23.60;41.81;101123.56;5054524;28;20287;-61
2022/07/20 02:30:23;;;;;;;7.82;5.22;;;;;;;23.63;42.32;101131.13;5039634;28;20056;-61
2022/07/20 02:32:49;;;;;;;9.50;5.63;;;;;;;23.46;42.72;101127.22;5046521;28;20023;-65
2022/07/20 02:35:15;;;;;;;10.45;5.93;;;;;;;23.51;41.42;101119.47;5041227;28;20469;-62
2022/07/20 02:37:40;;;;;;;9.38;6.10;;;;;;;23.37;41.14;101139.00;5042818;28;20413;-67
2022/07/20 02:40:06;;;;;;;10.48;5.82;;;;;;;23.32;42.44;101151.00;5050339;28;20032;-62
2022/07/20 02:42:32;;;;;;;9.07;5.85;;;;;;;23.44;42.07;101137.19;5027007;28;20063;-65
2022/07/20 02:44:57;;;;;;;8.57;5.63;;;;;;;23.35;42.59;101146.34;5026717;28;20383;-63
2022/07/20 02:47:23;;;;;;;8.80;5.97;;;;;;;23.34;42.41;101145.53;5029512;28;20456;-61
2022/07/20 02:49:48;;;;;;;8.68;5.75;;;;;;;23.37;42.02;101139.81;5030589;28;20033;-70
2022/07/20 02:52:13;;;;;;;12.15;6.28;;;;;;;23.25;41.87;101158.13;5033504;28;20372;-67
2022/07/20 02:54:39;;;;;;;9.10;6.13;;;;;;;23.22;42.42;101152.41;5024155;28;20034;-63
2022/07/20 02:57:04;;;;;;;11.00;6.18;;;;;;;23.18;42.41;101141.44;5029797;28;20028;-70
2022/07/20 02:59:29;;;;;;;13.05;6.35;;;;;;;23.03;42.89;101148.72;5027356;28;20033;-64
2022/07/20 03:01:55;;;;;;;10.13;6.70;;;;;;;23.02;42.00;101157.66;5038603;28;20531;-62
2022/07/20 03:04:20;;;;;;;9.30;6.03;;;;;;;23.00;42.13;101157.06;5011243;28;20025;-61
2022/07/20 03:06:45;;;;;;;13.93;6.88;;;;;;;22.96;42.50;101171.69;5020270;28;20109;-61
2022/07/20 03:09:11;;;;;;;10.43;6.63;;;;;;;22.76;43.46;101164.44;5027083;28;20053;-64
2022/07/20 03:11:36;;;;;;;10.45;7.10;;;;;;;22.79;43.88;101174.63;5025275;28;20113;-61
2022/07/20 03:14:01;;;;;;;12.25;7.45;;;;;;;22.87;44.54;101165.75;5038708;28;20470;-66
2022/07/20 03:16:27;;;;;;;12.57;7.85;;;;;;;22.83;44.98;101168.97;5027136;28;20053;-61
2022/07/20 03:18:52;;;;;;;11.13;7.85;;;;;;;22.72;45.33;101163.22;5018466;28;20481;-62
2022/07/20 03:21:18;;;;;;;11.02;7.78;;;;;;;22.77;45.01;101170.56;5020437;28;20104;-62
2022/07/20 03:23:43;;;;;;;11.52;7.88;;;;;;;22.74;45.49;101163.84;5028439;28;20100;-62
2022/07/20 03:26:08;;;;;;;12.52;7.65;;;;;;;22.67;45.24;101167.47;5021618;28;20481;-62
2022/07/20 03:28:34;;;;;;;11.80;7.72;;;;;;;22.65;46.40;101186.19;5019992;28;20466;-62
2022/07/20 03:30:59;;;;;;;11.23;7.55;;;;;;;22.52;45.80;101172.88;5020775;28;20367;-61
2022/07/20 03:33:24;;;;;;;14.00;8.77;;;;;;;22.50;46.19;101177.56;5027703;28;20466;-61
2022/07/20 03:35:50;;;;;;;14.18;9.73;;;;;;;22.55;46.86;101174.31;5019891;28;20029;-64
2022/07/20 03:38:15;;;;;;;14.00;10.63;;;;;;;22.48;47.74;101183.03;5019983;28;20029;-63
2022/07/20 03:40:40;;;;;;;15.13;11.90;;;;;;;22.41;48.58;101186.63;5020770;28;20224;-61
2022/07/20 03:43:05;;;;;;;16.35;12.52;;;;;;;22.35;50.59;101176.84;5028351;28;20568;-66
2022/07/20 03:45:31;;;;;;;16.92;14.05;;;;;;;22.36;50.84;101189.03;5022493;28;20558;-62
2022/07/20 03:47:56;;;;;;;18.30;15.07;;;;;;;22.30;52.11;101192.44;5021292;28;20545;-61
2022/07/20 03:50:22;;;;;;;19.92;17.25;;;;;;;22.24;53.26;101202.78;5020512;28;20037;-64
2022/07/20 03:52:48;;;;;;;24.77;18.25;;;;;;;22.30;54.52;101203.84;5026988;28;20059;-62
2022/07/20 03:55:13;;;;;;;23.42;20.90;;;;;;;22.17;56.43;101201.94;5017036;28;20084;-68
2022/07/20 03:57:38;;;;;;;25.55;22.73;;;;;;;22.21;56.87;101197.09;5023097;28;20029;-62
2022/07/20 04:00:05;;;;;;;27.38;24.48;;;;;;;22.25;58.34;101215.00;5025836;28;20108;-65
2022/07/20 04:02:30;;;;;;;29.80;26.45;;;;;;;22.26;59.51;101216.63;5026340;28;20029;-64
2022/07/20 04:04:55;;;;;;;32.28;28.10;;;;;;;22.34;59.03;101223.59;5038336;28;20031;-61
2022/07/20 04:07:21;;;;;;;34.20;29.70;;;;;;;22.21;60.24;101219.03;5025162;28;20025;-62
2022/07/20 04:09:46;;;;;;;34.28;30.60;;;;;;;22.34;61.01;101233.34;5022915;28;20121;-64
2022/07/20 04:12:30;;;;;;;34.28;30.58;;;;;;;22.30;59.63;101232.09;5026589;28;20065;-61
2022/07/20 04:14:55;;;;;;;35.30;31.70;;;;;;;22.09;62.48;101249.59;5015302;28;20109;-61
2022/07/20 04:17:22;;;;;;;36.03;32.13;;;;;;;22.16;62.53;101258.44;5018439;28;20457;-62
2022/07/20 04:19:48;;;;;;;35.15;31.55;;;;;;;22.27;62.52;101265.84;5019678;28;20112;-61
2022/07/20 04:22:13;;;;;;;35.80;31.63;;;;;;;22.26;62.40;101261.56;5026907;28;20036;-64
2022/07/20 04:24:38;;;;;;;37.22;33.55;;;;;;;22.22;62.82;101268.22;5027765;28;20021;-61
2022/07/20 04:27:05;;;;;;;37.55;33.60;;;;;;;22.26;62.20;101274.78;5022596;28;20022;-61
2022/07/20 04:29:31;;;;;;;38.72;34.83;;;;;;;22.18;62.42;101274.91;5031822;28;20021;-61
2022/07/20 04:31:57;;;;;;;40.15;36.10;;;;;;;22.18;63.09;101272.25;5022981;28;20041;-61
2022/07/20 04:34:23;;;;;;;39.92;35.92;;;;;;;22.06;63.99;101268.47;5024042;28;20025;-62
2022/07/20 04:36:48;;;;;;;40.47;36.60;;;;;;;22.04;64.03;101270.47;5033348;28;20358;-61
2022/07/20 04:39:14;;;;;;;40.40;36.28;;;;;;;22.06;64.98;101283.50;5027214;28;20109;-61
2022/07/20 04:41:40;;;;;;;39.53;35.45;;;;;;;22.04;64.97;101286.34;5019750;28;20101;-61
2022/07/20 04:44:06;;;;;;;40.05;36.10;;;;;;;21.99;65.27;101289.53;5026038;28;20025;-61
2022/07/20 04:46:31;;;;;;;40.80;36.83;;;;;;;22.08;65.12;101284.97;5014179;28;20118;-61
2022/07/20 04:48:56;;;;;;;40.42;36.53;;;;;;;22.09;65.64;101283.94;5027602;28;20029;-63
2022/07/20 04:51:22;;;;;;;40.30;36.45;;;;;;;22.24;65.12;101284.69;5016678;28;20017;-61
2022/07/20 04:53:48;;;;;;;41.20;37.13;;;;;;;22.07;66.34;101278.00;5019034;28;20029;-60
2022/07/20 04:56:14;;;;;;;40.55;36.35;;;;;;;22.25;65.46;101288.16;5035422;28;20108;-65
2022/07/20 04:58:39;;;;;;;40.63;36.63;;;;;;;22.21;65.79;101287.75;5026100;28;20037;-62
2022/07/20 05:01:04;;;;;;;40.80;36.97;;;;;;;22.20;65.82;101301.97;5026699;28;20104;-60
2022/07/20 05:03:30;;;;;;;41.50;37.20;;;;;;;22.18;65.56;101298.66;5035638;28;20036;-61
2022/07/20 05:05:55;;;;;;;39.15;35.25;;;;;;;22.40;63.97;101298.66;5031886;28;20029;-61
2022/07/20 05:08:21;;;;;;;40.35;36.35;;;;;;;22.37;65.04;101301.69;5023893;28;20033;-61
2022/07/20 05:10:46;;;;;;;38.33;34.20;;;;;;;22.42;64.67;101302.75;5014816;28;20064;-63
2022/07/20 05:13:11;;;;;;;37.70;33.90;;;;;;;22.41;65.32;101313.50;5016443;28;20461;-62
2022/07/20 05:15:37;;;;;;;39.70;35.70;;;;;;;22.43;64.94;101306.22;5024207;28;20071;-63
2022/07/20 05:18:02;;;;;;;37.85;34.05;;;;;;;22.50;64.78;101293.88;5022834;28;20049;-63
2022/07/20 05:20:28;;;;;;;36.90;33.10;;;;;;;22.49;65.42;101310.75;5013204;28;20025;-63
2022/07/20 05:22:53;;;;;;;36.70;32.95;;;;;;;22.53;65.11;101309.31;5018003;28;20605;-61
2022/07/20 05:25:19;;;;;;;34.90;31.60;;;;;;;22.49;65.26;101310.75;5024378;28;20137;-67
2022/07/20 05:27:44;;;;;;;36.65;32.95;;;;;;;22.55;65.23;101307.31;5019794;28;20033;-64
2022/07/20 05:30:10;;;;;;;36.50;32.83;;;;;;;22.57;64.59;101302.66;5030888;28;20045;-62
2022/07/20 05:32:35;;;;;;;34.60;31.35;;;;;;;22.58;65.03;101301.63;5025029;28;20029;-69
2022/07/20 05:35:01;;;;;;;34.53;30.92;;;;;;;22.68;64.44;101302.13;5021736;28;20485;-65
2022/07/20 05:37:26;;;;;;;35.22;31.83;;;;;;;22.78;64.05;101305.25;5020058;28;20060;-63
2022/07/20 05:39:51;;;;;;;34.55;31.13;;;;;;;22.83;63.57;101301.22;5016040;28;20022;-66
2022/07/20 05:42:17;;;;;;;32.47;29.27;;;;;;;22.77;64.43;101311.56;5017588;28;20057;-63
2022/07/20 05:44:42;;;;;;;33.95;30.35;;;;;;;22.89;63.89;101305.75;5018388;28;20030;-64
2022/07/20 05:47:09;;;;;;;33.78;30.33;;;;;;;22.93;63.87;101317.56;5016123;28;20071;-68
2022/07/20 05:49:34;;;;;;;33.15;29.77;;;;;;;22.96;63.94;101327.78;5012050;28;20112;-71
2022/07/20 05:51:59;;;;;;;32.60;29.40;;;;;;;23.12;63.71;101338.03;5017021;28;20447;-62
2022/07/20 05:54:25;;;;;;;31.27;28.20;;;;;;;23.08;64.08;101352.66;5023039;28;20531;-64
2022/07/20 05:56:50;;;;;;;31.50;28.45;;;;;;;23.08;64.00;101347.38;5023423;28;20029;-61
2022/07/20 05:59:16;;;;;;;30.90;27.60;;;;;;;23.07;63.80;101351.03;5035699;28;20025;-66
2022/07/20 06:01:43;;;;;;;31.60;28.50;;;;;;;23.08;62.89;101365.91;5020369;28;20036;-61
2022/07/20 06:04:10;;;;;;;30.05;27.05;;;;;;;23.19;62.53;101354.75;5021570;28;20101;-60
2022/07/20 06:06:35;;;;;;;28.95;25.63;;;;;;;23.25;61.85;101380.44;5026949;28;20036;-67
2022/07/20 06:09:00;;;;;;;26.67;23.92;;;;;;;23.27;61.94;101385.53;5027376;28;20025;-62
2022/07/20 06:11:26;;;;;;;27.08;24.27;;;;;;;23.21;61.96;101387.13;5037831;28;20044;-61
2022/07/20 06:13:51;;;;;;;25.45;22.67;;;;;;;23.32;60.78;101391.88;5028854;28;20017;-64
2022/07/20 06:16:16;;;;;;;24.48;21.88;;;;;;;23.39;60.89;101391.91;5037228;28;20036;-61
2022/07/20 06:18:41;;;;;;;24.65;21.63;;;;;;;23.33;60.58;101393.50;5028568;28;20040;-61
2022/07/20 06:21:07;;;;;;;24.92;20.35;;;;;;;23.36;60.32;101391.50;5025329;28;20021;-65
2022/07/20 06:23:32;;;;;;;24.38;20.02;;;;;;;23.47;60.27;101410.31;5026910;28;20116;-61
2022/07/20 06:25:58;;;;;;;26.52;19.98;;;;;;;23.43;60.01;101408.25;5028782;28;20032;-63
2022/07/20 06:28:23;;;;;;;21.98;19.58;;;;;;;23.43;60.04;101421.47;5027808;28;20132;-65
2022/07/20 06:30:48;;;;;;;20.10;17.83;;;;;;;23.58;59.63;101427.47;5030950;28;20071;-61
2022/07/20 06:33:14;;;;;;;22.30;18.45;;;;;;;23.58;60.10;101443.34;5038766;28;20060;-61
2022/07/20 06:35:39;;;;;;;22.58;18.58;;;;;;;23.69;59.80;101445.50;5025891;28;20112;-68
2022/07/20 06:38:04;;;;;;;21.30;18.10;;;;;;;23.66;59.61;101450.34;5036031;28;20063;-61
2022/07/20 06:40:30;;;;;;;22.55;17.63;;;;;;;23.66;59.62;101456.47;5027093;28;20025;-61
2022/07/20 06:42:55;;;;;;;22.33;16.48;;;;;;;23.81;59.13;101451.84;5025295;28;20033;-66
2022/07/20 06:45:21;;;;;;;20.25;16.00;;;;;;;23.84;58.83;101459.41;5026030;28;20538;-64
2022/07/20 06:47:46;;;;;;;22.08;15.77;;;;;;;23.92;58.66;101465.56;5018889;28;20029;-60
2022/07/20 06:50:12;;;;;;;19.77;15.70;;;;;;;23.85;58.30;101468.97;5019620;28;20313;-64
2022/07/20 06:52:37;;;;;;;17.92;15.18;;;;;;;23.88;57.23;101459.00;5022137;28;20075;-61
2022/07/20 06:55:03;;;;;;;18.27;14.80;;;;;;;23.83;57.89;101462.25;5028673;28;20108;-64
2022/07/20 06:57:29;;;;;;;19.00;14.88;;;;;;;23.96;58.34;101466.78;5028105;28;20040;-63
2022/07/20 06:59:54;;;;;;;19.95;14.85;;;;;;;23.97;57.90;101479.84;5025844;28;20093;-60
2022/07/20 07:02:19;;;;;;;19.38;13.65;;;;;;;24.01;57.64;101498.81;5025003;28;20120;-64
2022/07/20 07:04:45;;;;;;;20.27;14.13;;;;;;;24.04;57.67;101519.63;5029587;28;20030;-63
2022/07/20 07:07:10;;;;;;;20.52;14.90;;;;;;;24.03;58.46;101531.25;5027756;28;20345;-61
2022/07/20 07:09:36;;;;;;;19.02;14.40;;;;;;;23.96;58.69;101525.88;5029830;28;20065;-66
2022/07/20 07:12:01;;;;;;;20.13;13.77;;;;;;;24.13;57.40;101522.91;5018064;28;20369;-60
2022/07/20 07:14:26;;;;;;;21.20;13.65;;;;;;;24.20;57.98;101527.25;5015904;28;20026;-63
2022/07/20 07:16:55;;;;;;;19.98;13.60;;;;;;;24.23;57.30;101505.63;5028857;28;20044;-64
2022/07/20 07:19:21;;;;;;;18.80;13.30;;;;;;;24.18;58.20;101502.75;5025821;28;20075;-61
2022/07/20 07:21:46;;;;;;;21.45;12.82;;;;;;;24.29;58.19;101502.19;5026867;28;20033;-61
2022/07/20 07:24:11;;;;;;;19.58;13.27;;;;;;;24.29;58.93;101515.44;5023057;28;20021;-62
2022/07/20 07:26:37;;;;;;;18.85;12.75;;;;;;;24.42;58.64;101519.16;5030296;28;20041;-63
2022/07/20 07:29:02;;;;;;;15.93;12.20;;;;;;;24.58;57.01;101524.13;5026745;28;20029;-64
2022/07/20 07:31:27;;;;;;;17.73;12.52;;;;;;;24.70;57.90;101543.72;5027575;28;20049;-61
2022/07/20 07:33:53;;;;;;;17.60;12.73;;;;;;;24.83;57.63;101541.13;5014754;28;20018;-61
2022/07/20 07:36:18;;;;;;;16.05;12.07;;;;;;;24.93;57.73;101550.50;5036878;28;20048;-66
2022/07/20 07:38:43;;;;;;;19.00;12.75;;;;;;;24.73;56.80;101543.34;5040844;28;20025;-64
2022/07/20 07:41:09;;;;;;;19.95;12.20;;;;;;;24.77;56.52;101560.47;5028266;28;20029;-61
2022/07/20 07:43:34;;;;;;;18.67;12.02;;;;;;;24.72;57.09;101552.31;5034357;28;20072;-68
2022/07/20 07:46:00;;;;;;;17.00;12.25;;;;;;;24.75;57.27;101575.78;5019470;28;20075;-63
2022/07/20 07:48:25;;;;;;;16.17;12.45;;;;;;;24.95;56.67;101580.34;5026930;28;20461;-64
2022/07/20 07:50:51;;;;;;;16.27;12.13;;;;;;;24.96;56.78;101574.00;5019841;28;20367;-61
2022/07/20 07:53:16;;;;;;;16.98;11.98;;;;;;;24.94;57.13;101565.41;5013321;28;20470;-61
2022/07/20 07:55:42;;;;;;;17.33;12.85;;;;;;;25.05;56.94;101575.41;5024538;28;20470;-62
2022/07/20 07:58:09;;;;;;;17.50;11.52;;;;;;;25.05;56.56;101599.31;5026095;28;20041;-65
2022/07/20 08:00:35;;;;;;;17.27;12.00;;;;;;;25.24;56.47;101597.75;5022442;28;20021;-65
2022/07/20 08:03:01;;;;;;;15.70;12.32;;;;;;;25.30;56.84;101603.06;5027117;28;20029;-65
2022/07/20 08:05:27;;;;;;;16.77;12.10;;;;;;;25.45;56.78;101620.63;5022095;28;20077;-65
2022/07/20 08:07:52;;;;;;;16.65;11.88;;;;;;;25.34;55.98;101609.56;5017335;28;20414;-66
2022/07/20 08:10:17;;;;;;;17.83;11.55;;;;;;;25.50;55.90;101604.91;5020048;28;20043;-63
2022/07/20 08:12:43;;;;;;;16.10;10.90;;;;;;;25.55;56.03;101600.59;5020832;28;20040;-63
2022/07/20 08:15:10;;;;;;;15.77;11.60;;;;;;;25.66;55.85;101597.31;5011344;28;20091;-64
2022/07/20 08:17:35;;;;;;;16.58;12.02;;;;;;;25.70;56.81;101597.75;5011273;28;20029;-64
2022/07/20 08:20:01;;;;;;;16.00;12.07;;;;;;;25.69;56.24;101596.94;5022872;28;20025;-61
2022/07/20 08:22:27;;;;;;;16.13;12.10;;;;;;;25.81;54.32;101599.78;5016259;28;20036;-63
2022/07/20 08:24:52;;;;;;;16.52;12.20;;;;;;;25.81;54.61;101591.81;5016341;28;20022;-60
2022/07/20 08:27:17;;;;;;;16.80;12.27;;;;;;;25.87;53.98;101587.53;5015641;28;21124;-61
2022/07/20 08:29:43;;;;;;;14.23;12.13;;;;;;;25.73;54.23;101585.88;5018791;28;20387;-64
2022/07/20 08:32:08;;;;;;;15.70;11.85;;;;;;;26.00;54.07;101576.84;5025673;28;20116;-62
2022/07/20 08:34:33;;;;;;;16.55;12.25;;;;;;;25.98;54.47;101562.13;5026971;28;20060;-61
2022/07/20 08:36:59;;;;;;;17.45;11.88;;;;;;;26.05;53.70;101570.91;5014706;28;20026;-63
2022/07/20 08:39:25;;;;;;;15.85;12.05;;;;;;;25.85;53.40;101585.06;5012967;28;20041;-62
2022/07/20 08:41:50;;;;;;;14.93;11.57;;;;;;;26.22;53.14;101574.75;5021365;28;20024;-69
2022/07/20 08:44:16;;;;;;;17.33;11.60;;;;;;;26.11;53.41;101580.72;5022040;28;20405;-61
2022/07/20 08:46:45;;;;;;;16.42;11.98;;;;;;;26.16;53.53;101581.72;5036670;28;20026;-64
2022/07/20 08:49:13;;;;;;;16.45;11.93;;;;;;;26.27;53.70;101572.25;5038115;28;20055;-61
2022/07/20 08:51:39;;;;;;;15.40;11.45;;;;;;;26.36;52.68;101591.44;5023435;28;20032;-62
2022/07/20 08:54:05;;;;;;;15.98;11.48;;;;;;;26.51;53.33;101580.59;5024210;28;20073;-63
2022/07/20 08:56:31;;;;;;;16.25;11.90;;;;;;;26.59;52.93;101580.31;5025015;28;20052;-61
2022/07/20 08:58:56;;;;;;;17.42;11.50;;;;;;;26.66;53.74;101581.91;5024675;28;20063;-65
2022/07/20 09:01:21;;;;;;;16.52;11.65;;;;;;;26.70;52.78;101587.63;5019491;28;20026;-61
2022/07/20 09:04:09;;;;;;;15.75;11.50;;;;;;;26.89;52.32;101597.34;5029272;28;20033;-61
2022/07/20 09:06:43;;;;;;;13.93;11.55;;;;;;;26.85;51.95;101600.66;5030568;28;20053;-66
2022/07/20 09:09:09;;;;;;;15.38;11.05;;;;;;;26.91;51.88;101608.59;5033555;28;20029;-61
2022/07/20 09:11:34;;;;;;;14.65;11.30;;;;;;;26.97;52.16;101599.75;5020298;28;20473;-63
2022/07/20 09:14:00;;;;;;;16.73;11.38;;;;;;;27.05;54.70;101584.53;5014996;28;20052;-64
2022/07/20 09:16:36;;;;;;;15.65;11.75;;;;;;;27.05;51.65;101579.22;5021362;28;20029;-64
2022/07/20 09:19:02;;;;;;;14.68;11.02;;;;;;;27.06;50.78;101575.50;5026178;28;20552;-62
2022/07/20 09:21:29;;;;;;;14.25;11.38;;;;;;;26.94;51.35;101581.53;5017421;28;20466;-61
2022/07/20 09:23:56;;;;;;;15.68;11.35;;;;;;;26.91;51.33;101574.00;5017957;28;20076;-61
2022/07/20 09:26:24;;;;;;;24.08;11.80;;;;;;;27.11;51.97;101583.72;5025199;28;20493;-64
2022/07/20 09:28:52;;;;;;;14.57;11.02;;;;;;;27.23;50.70;101597.94;5012310;28;20029;-63
2022/07/20 09:31:20;;;;;;;14.82;11.40;;;;;;;27.25;50.12;101604.72;5018058;28;20053;-62
2022/07/20 09:33:51;;;;;;;14.00;11.35;;;;;;;27.64;48.95;101620.56;5014132;28;20049;-61
2022/07/20 09:36:19;;;;;;;14.95;11.32;;;;;;;27.29;48.45;101638.88;5012226;28;20032;-63
2022/07/20 09:38:44;;;;;;;15.30;11.65;;;;;;;27.48;48.72;101638.75;5013346;28;20029;-67
2022/07/20 09:41:23;;;;;;;12.70;11.27;;;;;;;27.47;48.74;101637.13;5012496;28;20018;-62
2022/07/20 09:43:49;;;;;;;13.05;10.60;;;;;;;27.63;49.67;101640.25;5013317;28;20022;-64
2022/07/20 09:46:17;;;;;;;13.68;11.10;;;;;;;27.53;47.74;101641.59;5017942;28;20576;-61
2022/07/20 09:48:46;;;;;;;13.55;10.90;;;;;;;27.75;47.24;101643.88;5018727;28;20018;-62
2022/07/20 09:51:21;;;;;;;13.07;10.80;;;;;;;27.78;48.10;101675.44;5018657;28;20477;-61
2022/07/20 09:53:52;;;;;;;15.07;11.30;;;;;;;27.87;47.95;101665.28;5023425;28;20043;-65
2022/07/20 09:56:19;;;;;;;12.70;10.15;;;;;;;27.78;47.27;101648.78;5026512;28;20021;-62
2022/07/20 09:58:50;;;;;;;13.70;9.77;;;;;;;27.88;47.21;101638.44;5027553;28;20033;-66
2022/07/20 10:01:19;;;;;;;11.25;9.38;;;;;;;27.74;46.56;101644.91;5018834;28;20021;-65
2022/07/20 10:03:47;;;;;;;14.32;10.02;;;;;;;28.03;46.63;101643.38;5023546;28;20490;-64
2022/07/20 10:06:13;;;;;;;12.55;9.93;;;;;;;28.00;46.67;101642.00;5032244;28;20040;-64
2022/07/20 10:08:39;;;;;;;13.68;10.35;;;;;;;28.13;46.75;101640.22;5021933;28;20060;-62
2022/07/20 10:11:04;;;;;;;12.77;9.93;;;;;;;28.07;46.26;101635.78;5029685;28;20461;-63
2022/07/20 10:13:31;;;;;;;14.27;10.13;;;;;;;28.28;45.43;101627.34;5030837;28;20128;-61
2022/07/20 10:16:04;;;;;;;13.70;9.85;;;;;;;28.34;45.58;101621.13;5029439;28;20021;-68
2022/07/20 10:18:29;;;;;;;12.48;9.30;;;;;;;28.34;45.57;101625.66;5027670;28;20033;-63
2022/07/20 10:20:55;;;;;;;12.70;9.70;;;;;;;28.29;45.36;101623.63;5028244;28;20481;-61
2022/07/20 10:23:28;;;;;;;12.90;9.30;;;;;;;28.44;44.60;101642.75;5030967;28;20405;-67
2022/07/20 10:25:54;;;;;;;11.80;9.13;;;;;;;28.32;44.61;101649.88;5029040;28;20037;-61
2022/07/20 10:28:22;;;;;;;10.38;8.27;;;;;;;28.37;44.39;101663.38;5029671;28;20044;-65
2022/07/20 10:30:56;;;;;;;9.63;8.43;;;;;;;28.07;43.85;101673.13;5024580;28;20092;-61
2022/07/20 10:33:24;;;;;;;10.98;9.10;;;;;;;27.94;44.19;101676.72;5031407;28;20357;-61
2022/07/20 10:35:50;;;;;;;11.15;8.90;;;;;;;27.99;44.42;101682.22;5035156;28;20539;-61
2022/07/20 10:38:20;;;;;;;12.32;8.65;;;;;;;28.03;44.61;101684.22;5036152;28;20026;-61
2022/07/20 10:44:20;;;;;;;13.07;8.90;;;;;;;28.20;45.47;101691.63;5039409;28;20128;-61
2022/07/20 10:46:48;;;;;;;10.80;8.88;;;;;;;28.10;44.16;101678.84;5018876;28;20042;-62
2022/07/20 10:49:14;;;;;;;10.93;8.30;;;;;;;28.34;44.46;101685.16;5021062;28;20033;-66
2022/07/20 10:51:39;;;;;;;10.55;8.50;;;;;;;28.48;44.09;101669.81;5024928;28;20075;-64
2022/07/20 10:54:33;;;;;;;11.32;8.02;;;;;;;28.88;43.84;101656.78;5029710;28;20448;-62
2022/07/20 10:56:59;;;;;;;11.57;7.88;;;;;;;28.55;43.94;101649.19;5020653;28;20108;-61
2022/07/20 10:59:25;;;;;;;11.13;8.18;;;;;;;28.49;43.32;101650.91;5020937;28;20029;-62
2022/07/20 11:01:51;;;;;;;9.95;7.75;;;;;;;28.32;43.24;101639.19;5027529;28;20032;-61
2022/07/20 11:04:17;;;;;;;10.45;7.80;;;;;;;28.12;43.43;101636.75;5022749;28;20036;-63
2022/07/20 11:06:42;;;;;;;10.23;7.30;;;;;;;28.19;43.13;101650.00;5013628;28;20017;-62
2022/07/20 11:09:08;;;;;;;10.07;7.20;;;;;;;28.43;45.30;101645.66;5016837;28;20441;-65
2022/07/20 11:11:36;;;;;;;11.07;7.30;;;;;;;28.65;44.57;101651.34;5014421;28;20064;-64
2022/07/20 11:14:05;;;;;;;9.80;6.95;;;;;;;28.75;44.13;101636.41;5013521;28;20036;-62
2022/07/20 11:16:31;;;;;;;9.30;7.70;;;;;;;28.76;41.68;101645.22;5014965;28;20033;-66
2022/07/20 11:18:58;;;;;;;10.35;7.60;;;;;;;28.88;43.13;101645.28;5013012;28;20076;-62